Time;durP1;ratioP1;P1;durP2;ratioP2;P2;SDS_P1;SDS_P2;PMS_P1;PMS_P2;Temp;Humidity;BMP_temperature;BMP_pressure;BME280_temperature;BME280_humidity;BME280_pressure;Samples;Min_cycle;Max_cycle;Signal;HPM_P1;HPM_P2
2023/10/08 00:01:11;;;;;;;17.20;4.80;;;;;;;17.02;100.00;101976.34;4906589;29;20100;-88
2023/10/08 00:03:37;;;;;;;13.57;4.70;;;;;;;16.98;100.00;101973.97;4917206;29;20063;-87
2023/10/08 00:06:07;;;;;;;11.80;4.38;;;;;;;16.95;100.00;101979.78;4890001;29;20478;-87
2023/10/08 00:08:35;;;;;;;21.48;4.78;;;;;;;16.94;100.00;101987.19;4917955;29;20058;-88
2023/10/08 00:11:06;;;;;;;13.95;4.40;;;;;;;16.86;100.00;101978.72;4888182;29;20052;-88
2023/10/08 00:13:35;;;;;;;14.70;4.43;;;;;;;16.91;100.00;101998.53;4935252;29;20031;-87
2023/10/08 00:16:01;;;;;;;12.05;4.88;;;;;;;16.78;100.00;101987.63;4904603;29;20023;-88
2023/10/08 00:18:28;;;;;;;16.23;4.93;;;;;;;16.78;100.00;101979.34;4917642;29;20514;-88
2023/10/08 00:21:15;;;;;;;16.67;4.85;;;;;;;16.78;100.00;101995.06;4921002;29;20126;-87
2023/10/08 00:23:49;;;;;;;13.05;4.57;;;;;;;16.75;100.00;101990.66;4910392;29;20031;-87
2023/10/08 00:26:18;;;;;;;11.30;4.25;;;;;;;16.67;100.00;101990.47;4921550;29;20035;-87
2023/10/08 00:28:47;;;;;;;12.95;4.57;;;;;;;16.59;100.00;101969.00;4921625;29;20444;-88
2023/10/08 00:31:17;;;;;;;14.48;5.18;;;;;;;16.52;100.00;101976.94;4905322;29;20091;-87
2023/10/08 00:33:44;;;;;;;14.77;5.15;;;;;;;16.52;100.00;101993.53;4933107;29;20028;-86
2023/10/08 00:36:20;;;;;;;14.40;4.60;;;;;;;16.40;100.00;101988.19;4937147;29;20070;-87
2023/10/08 00:38:53;;;;;;;16.35;5.10;;;;;;;16.34;100.00;101989.59;4911623;29;20048;-87
2023/10/08 00:41:21;;;;;;;14.20;4.82;;;;;;;16.33;100.00;101988.72;4935551;29;20047;-87
2023/10/08 00:43:50;;;;;;;12.63;4.60;;;;;;;16.28;100.00;101985.50;4936676;29;20067;-87
2023/10/08 00:46:30;;;;;;;15.30;5.28;;;;;;;16.29;100.00;101984.47;4936302;29;20087;-87
2023/10/08 00:48:57;;;;;;;15.93;5.55;;;;;;;16.23;100.00;101996.03;4948040;28;20031;-87
2023/10/08 00:51:31;;;;;;;12.23;4.72;;;;;;;16.17;100.00;101997.44;4937676;29;20406;-87
2023/10/08 00:54:06;;;;;;;13.85;5.15;;;;;;;16.12;100.00;101990.56;4936099;29;20042;-87
2023/10/08 00:59:20;;;;;;;8.82;4.78;;;;;;;15.97;100.00;102003.75;4931725;29;20130;-86
2023/10/08 01:01:51;;;;;;;14.40;5.55;;;;;;;15.91;100.00;101985.81;4934071;29;20023;-87
2023/10/08 01:04:18;;;;;;;16.33;5.05;;;;;;;15.88;100.00;101994.38;4936326;29;20051;-87
2023/10/08 01:06:49;;;;;;;16.25;5.43;;;;;;;15.84;100.00;102012.22;4932794;29;20449;-87
2023/10/08 01:09:18;;;;;;;17.02;5.43;;;;;;;15.80;100.00;102002.41;4941387;29;20123;-86
2023/10/08 01:11:49;;;;;;;15.25;5.00;;;;;;;15.78;100.00;102007.19;4934043;29;20032;-87
2023/10/08 01:14:20;;;;;;;15.93;4.63;;;;;;;15.71;100.00;101995.75;4935078;29;20023;-86
2023/10/08 01:16:47;;;;;;;9.48;4.70;;;;;;;15.70;100.00;102012.44;4930532;29;20056;-86
2023/10/08 01:19:19;;;;;;;21.20;6.55;;;;;;;15.74;100.00;101994.59;4936568;29;20035;-87
2023/10/08 01:21:47;;;;;;;20.48;5.80;;;;;;;15.63;100.00;101993.59;4927694;29;20027;-87
2023/10/08 01:24:17;;;;;;;15.82;5.30;;;;;;;15.57;100.00;101980.31;4936275;29;20044;-87
2023/10/08 01:26:42;;;;;;;15.10;4.78;;;;;;;15.56;100.00;101992.38;4936059;29;20070;-87
2023/10/08 01:29:21;;;;;;;17.38;5.38;;;;;;;15.58;100.00;101990.34;4936216;29;20395;-88
2023/10/08 01:31:53;;;;;;;15.82;5.00;;;;;;;15.54;100.00;101993.47;4936097;29;20045;-86
2023/10/08 01:34:18;;;;;;;18.90;5.43;;;;;;;15.48;100.00;101989.38;4936205;29;20051;-86
2023/10/08 01:36:44;;;;;;;22.42;5.15;;;;;;;15.42;100.00;101992.63;4934500;29;20042;-87
2023/10/08 01:39:15;;;;;;;14.98;4.88;;;;;;;15.33;100.00;101980.47;4937398;29;20047;-87
2023/10/08 01:41:43;;;;;;;12.70;4.88;;;;;;;15.36;100.00;101987.59;4922677;29;20039;-88
2023/10/08 01:44:08;;;;;;;19.17;5.28;;;;;;;15.37;100.00;101983.84;4937426;29;20035;-87
2023/10/08 01:46:34;;;;;;;12.30;4.30;;;;;;;15.35;100.00;101966.53;4923809;29;20076;-88
2023/10/08 01:49:04;;;;;;;11.80;4.68;;;;;;;15.37;100.00;101975.56;4918366;29;20027;-87
2023/10/08 01:51:37;;;;;;;14.18;4.80;;;;;;;15.35;100.00;101967.41;4935389;29;20040;-87
2023/10/08 01:54:09;;;;;;;13.05;4.30;;;;;;;15.41;100.00;101975.19;4927408;29;20040;-87
2023/10/08 01:56:43;;;;;;;13.18;4.55;;;;;;;15.44;100.00;101974.91;4925235;29;20031;-87
2023/10/08 01:59:15;;;;;;;13.40;5.13;;;;;;;15.50;100.00;101969.91;4936258;29;20087;-88
2023/10/08 02:01:41;;;;;;;18.25;4.50;;;;;;;15.41;100.00;101985.31;4916044;29;20027;-86
2023/10/08 02:04:11;;;;;;;13.70;3.97;;;;;;;15.44;100.00;101983.19;4931909;29;20532;-89
2023/10/08 02:06:37;;;;;;;13.05;4.88;;;;;;;15.41;100.00;101986.22;4934149;29;20046;-87
2023/10/08 02:09:07;;;;;;;22.10;6.38;;;;;;;15.46;100.00;101990.47;4929983;29;20110;-88
2023/10/08 02:11:50;;;;;;;13.40;4.57;;;;;;;15.49;100.00;101999.38;4934992;29;20035;-88
2023/10/08 02:14:17;;;;;;;19.83;4.55;;;;;;;15.55;100.00;102006.28;4949043;29;20032;-89
2023/10/08 02:16:44;;;;;;;16.88;4.50;;;;;;;15.46;100.00;102007.91;4934448;29;20087;-85
2023/10/08 02:19:12;;;;;;;12.65;4.82;;;;;;;15.42;100.00;102006.41;4926895;29;20474;-88
2023/10/08 02:21:40;;;;;;;16.10;4.47;;;;;;;15.43;100.00;102011.81;4933647;29;20036;-89
2023/10/08 02:24:10;;;;;;;17.70;5.18;;;;;;;15.42;100.00;102009.16;4932895;29;20494;-89
2023/10/08 02:26:37;;;;;;;12.98;4.20;;;;;;;15.37;100.00;102009.53;4919993;29;20036;-89
2023/10/08 02:29:10;;;;;;;13.35;4.60;;;;;;;15.28;100.00;102010.28;4917825;29;20039;-89
2023/10/08 02:31:41;;;;;;;14.15;4.38;;;;;;;15.22;100.00;101995.09;4931799;29;20479;-87
2023/10/08 02:34:12;;;;;;;14.70;4.40;;;;;;;15.20;100.00;101990.69;4929002;29;20046;-89
2023/10/08 02:36:38;;;;;;;10.52;4.80;;;;;;;15.20;100.00;101996.22;4920568;29;20036;-89
2023/10/08 02:39:14;;;;;;;12.90;4.60;;;;;;;15.25;100.00;102008.66;4934861;29;20043;-88
2023/10/08 02:41:59;;;;;;;11.43;4.70;;;;;;;15.24;100.00;102006.88;4925281;29;20060;-88
2023/10/08 02:44:25;;;;;;;11.07;4.35;;;;;;;15.20;100.00;102013.69;4902768;29;20063;-88
2023/10/08 02:46:51;;;;;;;14.57;4.68;;;;;;;15.19;100.00;102003.63;4902095;29;20051;-89
2023/10/08 02:49:24;;;;;;;14.45;5.03;;;;;;;15.09;100.00;102007.25;4909298;29;20047;-79
2023/10/08 02:51:54;;;;;;;17.50;4.88;;;;;;;15.13;100.00;102019.78;4928914;29;20042;-79
2023/10/08 02:54:23;;;;;;;20.05;4.40;;;;;;;15.14;100.00;102019.69;4915799;29;20040;-79
2023/10/08 02:56:58;;;;;;;14.00;4.38;;;;;;;15.12;100.00;102018.94;4933996;29;20053;-78
2023/10/08 02:59:28;;;;;;;18.65;5.63;;;;;;;15.15;100.00;102024.22;4932709;29;20387;-78
2023/10/08 03:01:55;;;;;;;23.08;5.03;;;;;;;15.14;100.00;102043.63;4908576;29;20033;-78
2023/10/08 03:04:22;;;;;;;12.88;4.80;;;;;;;15.15;100.00;102049.03;4916315;29;20158;-79
2023/10/08 03:06:52;;;;;;;25.27;5.13;;;;;;;15.16;100.00;102053.53;4923869;29;20163;-79
2023/10/08 03:09:31;;;;;;;17.42;4.50;;;;;;;15.14;100.00;102061.06;4927104;29;20095;-79
2023/10/08 03:11:58;;;;;;;13.88;5.03;;;;;;;15.00;100.00;102040.09;4933310;29;20038;-78
2023/10/08 03:14:26;;;;;;;12.02;4.85;;;;;;;15.03;100.00;102050.00;4904599;29;20134;-79
2023/10/08 03:16:54;;;;;;;14.48;4.43;;;;;;;15.01;100.00;102039.06;4936584;29;20027;-78
2023/10/08 03:19:21;;;;;;;15.50;4.90;;;;;;;14.97;100.00;102033.91;4916170;29;20027;-78
2023/10/08 03:22:05;;;;;;;15.65;4.70;;;;;;;14.94;100.00;102036.91;4917619;29;20106;-78
2023/10/08 03:27:12;;;;;;;13.02;4.53;;;;;;;14.83;100.00;102029.50;4919965;29;20449;-78
2023/10/08 03:29:41;;;;;;;18.92;4.53;;;;;;;14.84;100.00;102039.56;4931122;29;20036;-78
2023/10/08 03:32:17;;;;;;;11.80;4.55;;;;;;;14.85;100.00;102036.63;4920171;29;20039;-79
2023/10/08 03:34:47;;;;;;;15.25;4.40;;;;;;;14.87;100.00;102045.69;4918638;29;20122;-79
2023/10/08 03:37:22;;;;;;;13.48;4.88;;;;;;;14.74;100.00;102039.38;4926745;29;20027;-79
2023/10/08 03:39:51;;;;;;;15.27;4.47;;;;;;;14.75;100.00;102049.41;4933413;29;20155;-79
2023/10/08 03:42:24;;;;;;;14.48;4.70;;;;;;;14.78;100.00;102051.03;4919459;29;20437;-80
2023/10/08 03:44:52;;;;;;;18.70;4.90;;;;;;;14.74;100.00;102053.16;4934090;29;20114;-78
2023/10/08 03:47:23;;;;;;;12.57;4.80;;;;;;;14.78;100.00;102056.56;4915015;29;20039;-79
2023/10/08 03:49:51;;;;;;;14.93;4.57;;;;;;;14.75;100.00;102041.13;4935081;29;20024;-78
2023/10/08 03:52:22;;;;;;;16.27;4.32;;;;;;;14.72;100.00;102044.13;4903827;29;20039;-79
2023/10/08 03:55:04;;;;;;;13.90;4.32;;;;;;;14.69;100.00;102039.75;4917528;29;20398;-79
2023/10/08 03:57:41;;;;;;;12.15;4.53;;;;;;;14.70;100.00;102060.78;4916466;29;20094;-79
2023/10/08 04:00:12;;;;;;;14.35;4.40;;;;;;;14.79;100.00;102058.31;4915398;29;20039;-78
2023/10/08 04:02:41;;;;;;;15.63;5.10;;;;;;;14.68;100.00;102045.38;4936823;29;20494;-79
2023/10/08 04:05:19;;;;;;;10.77;4.30;;;;;;;14.72;100.00;102054.28;4932397;29;20036;-79
2023/10/08 04:13:09;;;;;;;16.17;4.90;;;;;;;14.62;100.00;102062.38;4936062;29;20115;-78
2023/10/08 04:15:40;;;;;;;17.67;4.90;;;;;;;14.59;100.00;102043.28;4901379;29;20130;-78
2023/10/08 04:18:13;;;;;;;15.20;4.63;;;;;;;14.50;100.00;102031.09;4935995;29;20118;-79
2023/10/08 04:20:39;;;;;;;17.85;4.90;;;;;;;14.47;100.00;102039.59;4931085;29;20055;-79
2023/10/08 04:23:13;;;;;;;15.18;5.78;;;;;;;14.39;100.00;102033.78;4935814;29;20063;-78
2023/10/08 04:25:39;;;;;;;18.35;4.68;;;;;;;14.41;100.00;102049.19;4917110;29;20032;-79
2023/10/08 04:28:06;;;;;;;19.80;5.18;;;;;;;14.49;100.00;102059.66;4915953;29;20028;-78
2023/10/08 04:30:36;;;;;;;13.27;5.13;;;;;;;14.52;100.00;102056.66;4933025;29;20035;-79
2023/10/08 04:33:12;;;;;;;18.52;5.53;;;;;;;14.48;100.00;102061.53;4930062;29;20040;-79
2023/10/08 04:35:48;;;;;;;11.00;4.28;;;;;;;14.45;100.00;102049.88;4930545;29;20038;-77
2023/10/08 04:38:21;;;;;;;14.18;4.80;;;;;;;14.42;100.00;102055.59;4908057;29;20066;-77
2023/10/08 04:40:48;;;;;;;11.18;4.50;;;;;;;14.49;100.00;102063.31;4933556;29;20091;-77
2023/10/08 04:43:30;;;;;;;14.60;4.88;;;;;;;14.40;100.00;102052.97;4933568;29;20031;-78
2023/10/08 04:45:57;;;;;;;20.80;4.90;;;;;;;14.48;100.00;102063.41;4913716;29;20044;-78
2023/10/08 04:48:24;;;;;;;11.77;5.07;;;;;;;14.45;100.00;102064.50;4931808;29;20087;-77
2023/10/08 04:50:58;;;;;;;12.32;5.53;;;;;;;14.44;100.00;102071.00;4934679;29;20490;-78
2023/10/08 04:53:47;;;;;;;11.27;4.65;;;;;;;14.36;100.00;102081.72;4925406;29;20032;-77
2023/10/08 04:56:16;;;;;;;9.85;4.60;;;;;;;14.43;100.00;102107.84;4930748;29;20032;-78
2023/10/08 04:58:47;;;;;;;18.13;4.97;;;;;;;14.44;100.00;102109.59;4901940;29;20460;-77
2023/10/08 05:01:18;;;;;;;20.05;4.95;;;;;;;14.40;100.00;102113.59;4913646;29;20067;-77
2023/10/08 05:04:06;;;;;;;12.60;4.00;;;;;;;14.38;100.00;102096.31;4901326;29;20027;-78
2023/10/08 05:41:27;;;;;;;15.93;5.15;;;;;;;14.14;100.00;102121.03;4890924;29;20490;-86
2023/10/08 05:44:14;;;;;;;17.13;5.20;;;;;;;14.09;100.00;102117.75;4928071;29;20051;-87
2023/10/08 05:46:49;;;;;;;18.17;5.68;;;;;;;14.10;100.00;102112.13;4934606;29;20077;-86
2023/10/08 05:49:38;;;;;;;15.85;5.43;;;;;;;14.08;100.00;102111.34;4916896;29;20485;-86
2023/10/08 06:05:22;;;;;;;17.42;5.45;;;;;;;14.04;100.00;102092.44;4874600;29;20159;-86
2023/10/08 06:13:10;;;;;;;16.17;4.70;;;;;;;14.00;100.00;102086.25;4861475;29;20077;-86
2023/10/08 06:18:20;;;;;;;12.80;5.03;;;;;;;14.22;100.00;102101.19;4870343;29;20037;-76
2023/10/08 06:20:46;;;;;;;15.70;5.55;;;;;;;14.14;100.00;102088.88;4870051;29;20048;-76
2023/10/08 06:23:15;;;;;;;17.35;5.55;;;;;;;14.11;100.00;102094.59;4889659;29;20044;-76
2023/10/08 06:25:47;;;;;;;20.58;5.55;;;;;;;14.25;100.00;102103.69;4932173;29;20066;-76
2023/10/08 06:28:20;;;;;;;15.75;4.90;;;;;;;14.24;100.00;102110.22;4911873;29;20035;-76
2023/10/08 06:30:53;;;;;;;13.82;4.72;;;;;;;14.31;100.00;102117.03;4927764;29;20044;-76
2023/10/08 06:33:19;;;;;;;19.55;4.97;;;;;;;14.31;100.00;102117.03;4929230;29;20035;-76
2023/10/08 06:35:56;;;;;;;14.27;5.57;;;;;;;14.33;100.00;102134.31;4931595;29;20457;-76
2023/10/08 06:38:24;;;;;;;21.38;5.70;;;;;;;14.33;100.00;102137.97;4899995;29;20051;-76
2023/10/08 06:40:52;;;;;;;17.88;5.63;;;;;;;14.28;100.00;102120.91;4929753;29;20055;-76
2023/10/08 06:43:24;;;;;;;14.73;5.22;;;;;;;14.33;100.00;102124.19;4915453;29;20082;-76
2023/10/08 06:45:57;;;;;;;17.17;5.67;;;;;;;14.38;100.00;102125.72;4931174;29;20050;-78
2023/10/08 06:48:24;;;;;;;16.60;5.30;;;;;;;14.38;100.00;102117.44;4930462;29;20502;-77
2023/10/08 06:50:51;;;;;;;18.10;6.22;;;;;;;14.33;100.00;102113.19;4908603;29;20051;-77
2023/10/08 06:53:21;;;;;;;13.00;5.18;;;;;;;14.37;100.00;102118.47;4932052;29;20028;-77
2023/10/08 06:55:54;;;;;;;20.48;5.47;;;;;;;14.33;100.00;102112.28;4931720;29;20079;-77
2023/10/08 06:58:20;;;;;;;17.38;5.65;;;;;;;14.48;100.00;102127.69;4930763;29;20114;-76
2023/10/08 07:00:47;;;;;;;17.88;5.18;;;;;;;14.56;100.00;102135.38;4910317;29;20090;-76
2023/10/08 07:03:17;;;;;;;18.75;5.65;;;;;;;14.59;100.00;102142.50;4913149;29;20039;-77
2023/10/08 07:05:53;;;;;;;16.88;6.38;;;;;;;14.59;100.00;102154.44;4930548;29;20039;-77
2023/10/08 07:08:23;;;;;;;20.92;5.75;;;;;;;14.57;100.00;102169.31;4928359;29;20036;-76
2023/10/08 07:10:49;;;;;;;17.92;6.38;;;;;;;14.52;100.00;102166.91;4929706;29;20040;-76
2023/10/08 07:13:17;;;;;;;16.33;5.63;;;;;;;14.72;100.00;102178.34;4932202;29;20027;-76
2023/10/08 07:15:45;;;;;;;21.00;6.13;;;;;;;14.85;100.00;102181.91;4930513;29;20058;-76
2023/10/08 07:18:19;;;;;;;18.67;5.90;;;;;;;14.74;100.00;102181.84;4927526;29;20030;-76
2023/10/08 07:20:45;;;;;;;14.50;6.03;;;;;;;14.76;100.00;102174.34;4931636;29;20563;-76
2023/10/08 07:23:24;;;;;;;15.85;5.93;;;;;;;14.89;100.00;102165.03;4913749;29;20035;-77
2023/10/08 07:26:10;;;;;;;15.13;5.82;;;;;;;14.90;100.00;102163.16;4930232;29;20130;-78
2023/10/08 07:28:40;;;;;;;13.43;5.60;;;;;;;14.97;100.00;102161.69;4928389;29;20034;-76
2023/10/08 07:31:17;;;;;;;39.75;7.28;;;;;;;15.01;100.00;102167.84;4929416;29;20083;-77
2023/10/08 07:33:56;;;;;;;17.10;6.43;;;;;;;15.10;100.00;102177.28;4930484;29;20505;-77
2023/10/08 07:36:23;;;;;;;20.23;6.97;;;;;;;15.13;100.00;102179.81;4930142;29;20035;-76
2023/10/08 07:38:48;;;;;;;18.85;6.85;;;;;;;15.20;100.00;102170.94;4917176;29;20044;-76
2023/10/08 07:41:15;;;;;;;24.45;6.60;;;;;;;15.28;100.00;102174.97;4929197;29;20028;-77
2023/10/08 07:43:44;;;;;;;27.17;7.07;;;;;;;15.27;100.00;102164.97;4932481;29;20518;-77
2023/10/08 07:46:11;;;;;;;25.17;7.30;;;;;;;15.21;100.00;102172.69;4914398;29;20031;-77
2023/10/08 07:48:42;;;;;;;24.75;7.13;;;;;;;15.21;100.00;102182.84;4931579;29;20031;-77
2023/10/08 07:51:10;;;;;;;21.48;7.70;;;;;;;15.43;100.00;102190.34;4929853;29;20074;-77
2023/10/08 07:53:38;;;;;;;19.55;6.65;;;;;;;15.53;100.00;102188.63;4929630;29;20035;-77
2023/10/08 07:56:06;;;;;;;23.67;7.90;;;;;;;15.38;100.00;102198.09;4927761;29;20478;-77
2023/10/08 07:58:34;;;;;;;19.23;8.38;;;;;;;15.20;100.00;102190.25;4927003;29;20032;-77
2023/10/08 08:01:13;;;;;;;20.63;8.23;;;;;;;15.38;100.00;102203.59;4931753;29;20035;-77
2023/10/08 08:03:41;;;;;;;25.10;9.10;;;;;;;15.47;100.00;102213.94;4929203;29;20031;-77
2023/10/08 08:06:07;;;;;;;26.15;8.90;;;;;;;15.43;100.00;102209.69;4932259;29;20035;-77
2023/10/08 08:08:35;;;;;;;24.33;9.13;;;;;;;15.43;100.00;102216.06;4945789;29;20502;-77
2023/10/08 08:11:13;;;;;;;21.58;8.68;;;;;;;15.40;100.00;102210.78;4947185;28;20174;-77
2023/10/08 08:13:42;;;;;;;51.30;9.75;;;;;;;15.53;100.00;102213.47;4934313;29;20047;-77
2023/10/08 08:16:17;;;;;;;25.20;9.32;;;;;;;15.54;100.00;102217.09;4945865;28;20046;-77
2023/10/08 08:18:51;;;;;;;21.50;8.50;;;;;;;15.58;100.00;102221.38;4930046;29;20036;-77
2023/10/08 08:21:19;;;;;;;28.58;9.73;;;;;;;15.62;100.00;102222.91;4932999;29;20023;-77
2023/10/08 08:23:48;;;;;;;22.92;9.85;;;;;;;15.67;100.00;102225.28;4930814;29;20041;-77
2023/10/08 08:26:28;;;;;;;32.45;9.98;;;;;;;15.75;100.00;102229.19;4933924;29;20035;-77
2023/10/08 08:29:01;;;;;;;33.65;9.85;;;;;;;15.86;100.00;102225.63;4928131;29;20023;-78
2023/10/08 08:31:35;;;;;;;31.27;10.93;;;;;;;15.88;100.00;102225.50;4933417;29;20058;-77
2023/10/08 08:34:13;;;;;;;35.85;10.38;;;;;;;16.06;100.00;102226.78;4929585;29;20122;-77
2023/10/08 08:36:46;;;;;;;31.42;11.60;;;;;;;16.24;100.00;102235.47;4933923;29;20377;-77
2023/10/08 08:39:28;;;;;;;39.65;12.48;;;;;;;16.30;100.00;102237.75;4933265;29;20078;-77
2023/10/08 08:41:59;;;;;;;31.75;12.73;;;;;;;16.52;100.00;102247.91;4933307;29;20114;-77
2023/10/08 08:44:31;;;;;;;38.05;12.93;;;;;;;16.79;100.00;102254.06;4915543;29;20043;-78
2023/10/08 08:47:04;;;;;;;39.88;13.90;;;;;;;16.86;100.00;102259.00;4915548;29;20027;-77
2023/10/08 08:49:33;;;;;;;33.95;12.82;;;;;;;16.76;100.00;102248.78;4914840;29;20466;-77
2023/10/08 08:52:00;;;;;;;48.30;14.38;;;;;;;16.92;100.00;102253.94;4916098;29;20534;-77
2023/10/08 08:54:30;;;;;;;46.53;14.85;;;;;;;17.19;100.00;102259.91;4930675;29;20058;-77
2023/10/08 08:56:57;;;;;;;46.47;15.27;;;;;;;16.83;100.00;102274.94;4916164;29;20382;-77
2023/10/08 08:59:23;;;;;;;43.80;15.52;;;;;;;16.87;100.00;102270.94;4933937;29;20095;-77
2023/10/08 09:01:50;;;;;;;44.08;15.05;;;;;;;16.85;100.00;102275.72;4916564;29;20512;-77
2023/10/08 09:04:17;;;;;;;44.85;15.52;;;;;;;16.85;100.00;102256.34;4915899;29;20175;-77
2023/10/08 09:06:44;;;;;;;46.08;16.02;;;;;;;16.98;100.00;102262.59;4913958;29;20564;-78
2023/10/08 09:09:22;;;;;;;52.63;15.82;;;;;;;17.08;100.00;102268.25;4912405;29;20024;-78
2023/10/08 09:11:51;;;;;;;46.90;16.52;;;;;;;17.00;100.00;102265.25;4932192;29;20027;-78
2023/10/08 09:14:25;;;;;;;56.85;17.52;;;;;;;17.23;100.00;102272.50;4934226;29;20038;-78
2023/10/08 09:16:51;;;;;;;41.65;15.63;;;;;;;17.42;100.00;102260.72;4928140;29;20631;-78
2023/10/08 09:19:21;;;;;;;40.70;16.95;;;;;;;17.72;100.00;102261.84;4913845;29;20126;-76
2023/10/08 09:22:05;;;;;;;43.45;17.52;;;;;;;17.72;100.00;102269.28;4917430;29;20175;-76
2023/10/08 09:24:33;;;;;;;43.33;16.55;;;;;;;18.03;100.00;102266.63;4926091;29;20031;-76
2023/10/08 09:26:59;;;;;;;43.78;17.88;;;;;;;17.69;100.00;102258.47;4934532;29;20086;-77
2023/10/08 09:29:29;;;;;;;42.00;16.85;;;;;;;17.78;100.00;102260.44;4935859;29;20043;-77
2023/10/08 09:31:59;;;;;;;46.95;16.35;;;;;;;17.65;100.00;102266.16;4932505;29;20504;-77
2023/10/08 09:34:29;;;;;;;53.58;17.50;;;;;;;17.33;100.00;102266.16;4916516;29;20047;-77
2023/10/08 09:37:02;;;;;;;46.40;15.63;;;;;;;17.61;100.00;102261.88;4916616;29;20031;-77
2023/10/08 09:39:30;;;;;;;46.28;15.50;;;;;;;17.67;100.00;102274.34;4932506;29;20151;-77
2023/10/08 09:41:56;;;;;;;37.78;14.18;;;;;;;17.56;100.00;102267.84;4933739;29;20067;-78
2023/10/08 09:44:26;;;;;;;35.60;14.57;;;;;;;17.22;100.00;102276.28;4902306;29;20035;-77
2023/10/08 09:46:55;;;;;;;36.28;14.25;;;;;;;17.29;100.00;102273.00;4918400;29;20055;-77
2023/10/08 09:49:29;;;;;;;43.13;14.40;;;;;;;17.13;100.00;102273.41;4931529;29;20032;-76
2023/10/08 09:51:55;;;;;;;27.73;14.25;;;;;;;17.26;100.00;102265.81;4933967;29;20485;-77
2023/10/08 09:54:31;;;;;;;31.40;15.48;;;;;;;17.40;100.00;102272.97;4932353;29;20052;-77
2023/10/08 09:56:58;;;;;;;36.75;14.52;;;;;;;17.25;100.00;102288.97;4933706;29;20028;-79
2023/10/08 09:59:27;;;;;;;32.53;14.50;;;;;;;17.09;100.00;102275.56;4934246;29;20078;-78
2023/10/08 10:01:59;;;;;;;36.88;14.45;;;;;;;17.10;100.00;102277.28;4933290;29;20035;-77
2023/10/08 10:04:25;;;;;;;27.15;13.73;;;;;;;17.06;100.00;102275.81;4917164;29;20036;-78
2023/10/08 10:06:50;;;;;;;32.60;14.32;;;;;;;17.00;100.00;102271.66;4933842;29;20181;-78
2023/10/08 10:09:24;;;;;;;34.53;14.07;;;;;;;17.07;100.00;102278.44;4914205;29;20375;-78
2023/10/08 10:11:50;;;;;;;32.97;14.05;;;;;;;16.87;100.00;102269.06;4933524;29;20078;-78
2023/10/08 10:14:17;;;;;;;31.85;12.95;;;;;;;16.95;100.00;102270.28;4916023;29;20054;-78
2023/10/08 10:16:48;;;;;;;32.72;12.35;;;;;;;16.90;100.00;102265.13;4931730;29;20067;-78
2023/10/08 10:19:18;;;;;;;33.83;12.52;;;;;;;16.90;100.00;102256.84;4929848;29;20136;-78
2023/10/08 10:21:45;;;;;;;38.35;12.90;;;;;;;16.81;100.00;102269.53;4932737;29;20115;-79
2023/10/08 10:24:33;;;;;;;30.48;12.85;;;;;;;16.84;100.00;102268.38;4932132;29;20932;-79
2023/10/08 10:27:15;;;;;;;33.08;12.32;;;;;;;16.96;100.00;102278.47;4933614;29;20546;-79
2023/10/08 10:29:43;;;;;;;34.53;12.52;;;;;;;17.04;100.00;102277.84;4929307;29;20051;-78
2023/10/08 10:32:11;;;;;;;31.40;13.93;;;;;;;17.07;100.00;102267.38;4916505;29;20031;-79
2023/10/08 10:34:39;;;;;;;36.33;14.55;;;;;;;16.89;100.00;102269.81;4915481;29;20027;-79
2023/10/08 10:37:09;;;;;;;68.68;15.57;;;;;;;17.02;100.00;102266.00;4932928;29;20039;-79
2023/10/08 10:39:39;;;;;;;36.13;14.20;;;;;;;16.60;100.00;102271.31;4928032;29;20070;-79
2023/10/08 10:42:06;;;;;;;38.30;14.63;;;;;;;16.81;100.00;102268.66;4917126;29;20122;-79
2023/10/08 10:44:36;;;;;;;33.40;16.75;;;;;;;17.16;100.00;102262.06;4915124;29;20075;-78
2023/10/08 10:50:31;;;;;;;28.65;15.05;;;;;;;17.30;100.00;102260.88;4929124;29;20122;-79
2023/10/08 10:58:04;;;;;;;29.23;12.75;;;;;;;17.17;100.00;102272.16;4917359;29;20061;-79
2023/10/08 11:03:02;;;;;;;46.03;21.42;;;;;;;17.07;100.00;102285.88;4934125;29;20123;-79
2023/10/08 11:05:29;;;;;;;43.88;20.08;;;;;;;17.21;100.00;102273.63;4928022;29;20027;-77
2023/10/08 11:08:09;;;;;;;41.60;13.95;;;;;;;17.22;100.00;102278.16;4932322;29;20066;-78
2023/10/08 11:13:40;;;;;;;44.30;17.92;;;;;;;16.95;100.00;102284.13;4899824;29;20040;-78
2023/10/08 11:16:09;;;;;;;33.55;14.20;;;;;;;17.00;100.00;102277.19;4929523;29;20099;-79
2023/10/08 11:18:35;;;;;;;34.58;17.23;;;;;;;16.97;100.00;102288.53;4932570;29;20087;-78
2023/10/08 11:21:15;;;;;;;32.35;16.58;;;;;;;16.78;100.00;102291.03;4908918;29;20035;-81
2023/10/08 11:23:43;;;;;;;33.13;14.18;;;;;;;16.77;100.00;102292.03;4915679;29;20469;-79
2023/10/08 11:26:09;;;;;;;27.85;12.90;;;;;;;16.89;100.00;102291.94;4914624;29;20024;-78
2023/10/08 11:28:42;;;;;;;32.50;14.80;;;;;;;16.89;100.00;102291.06;4931950;29;20035;-81
2023/10/08 11:31:11;;;;;;;35.08;18.48;;;;;;;17.06;100.00;102282.22;4914458;29;20027;-80
2023/10/08 11:33:41;;;;;;;35.22;13.00;;;;;;;16.98;100.00;102281.09;4918665;29;20032;-79
2023/10/08 11:36:22;;;;;;;29.52;11.82;;;;;;;17.00;100.00;102277.19;4934821;29;20043;-80
2023/10/08 11:38:48;;;;;;;32.90;12.70;;;;;;;16.94;100.00;102283.25;4935660;29;20513;-79
2023/10/08 11:41:21;;;;;;;35.05;13.60;;;;;;;16.94;100.00;102269.44;4935474;29;20027;-78
2023/10/08 11:43:53;;;;;;;26.52;12.77;;;;;;;17.02;100.00;102261.34;4919441;29;20115;-79
2023/10/08 11:46:21;;;;;;;25.37;12.17;;;;;;;17.05;100.00;102260.19;4901444;29;20032;-79
2023/10/08 11:48:46;;;;;;;60.80;40.38;;;;;;;17.57;100.00;102257.66;4934339;29;20111;-79
2023/10/08 11:51:16;;;;;;;31.13;12.43;;;;;;;17.47;100.00;102254.78;4900189;29;20051;-80
2023/10/08 11:53:44;;;;;;;31.58;12.38;;;;;;;17.82;100.00;102264.69;4900788;29;20046;-79
2023/10/08 11:56:13;;;;;;;32.60;10.70;;;;;;;17.82;100.00;102251.72;4934896;29;20153;-81
2023/10/08 11:58:44;;;;;;;31.00;12.15;;;;;;;18.05;100.00;102254.38;4919325;29;20040;-81
2023/10/08 12:01:18;;;;;;;28.13;11.43;;;;;;;18.06;100.00;102264.44;4936227;29;20024;-79
2023/10/08 12:03:49;;;;;;;28.60;11.43;;;;;;;17.85;100.00;102263.56;4934729;29;20146;-80
2023/10/08 12:06:15;;;;;;;32.90;13.18;;;;;;;17.81;100.00;102255.50;4917039;29;20042;-79
2023/10/08 12:08:46;;;;;;;27.88;11.88;;;;;;;17.90;100.00;102250.19;4919233;29;20024;-79
2023/10/08 12:11:15;;;;;;;23.52;11.73;;;;;;;17.63;100.00;102246.03;4918478;29;20079;-80
2023/10/08 12:13:44;;;;;;;28.67;11.10;;;;;;;17.87;100.00;102244.88;4917848;29;20123;-78
2023/10/08 12:16:18;;;;;;;29.30;10.85;;;;;;;17.67;100.00;102232.78;4930518;29;20058;-80
2023/10/08 12:18:48;;;;;;;27.15;11.07;;;;;;;17.86;100.00;102230.16;4935934;29;20044;-79
2023/10/08 12:21:15;;;;;;;23.75;12.15;;;;;;;17.79;100.00;102218.75;4923634;29;20490;-80
2023/10/08 12:23:43;;;;;;;30.42;12.10;;;;;;;17.73;100.00;102222.06;4922106;29;20147;-80
2023/10/08 12:26:09;;;;;;;29.65;12.23;;;;;;;17.95;100.00;102217.41;4934265;29;20024;-79
2023/10/08 12:28:36;;;;;;;32.63;12.98;;;;;;;17.88;100.00;102225.38;4918803;29;20054;-80
2023/10/08 12:31:03;;;;;;;32.20;12.73;;;;;;;17.89;100.00;102224.38;4935816;29;20020;-79
2023/10/08 12:33:29;;;;;;;38.60;13.93;;;;;;;17.99;100.00;102218.91;4934144;29;20031;-79
2023/10/08 12:35:57;;;;;;;33.22;13.55;;;;;;;17.97;100.00;102207.97;4939346;29;20019;-94
2023/10/08 12:38:23;;;;;;;36.20;14.48;;;;;;;18.00;100.00;102215.09;4934272;29;20052;-94
2023/10/08 12:40:55;;;;;;;31.98;13.52;;;;;;;18.11;100.00;102222.47;4920894;29;20067;-93
2023/10/08 12:43:22;;;;;;;28.23;13.95;;;;;;;18.08;100.00;102222.75;4944999;29;20062;-92